sensor_id;sensor_type;location;lat;lon;timestamp;P1;durP1;ratioP1;P2;durP2;ratioP2
11877;SDS011;5998;42.676;23.268;2022-07-21T00:01:17;8.43;;;4.57;;
11877;SDS011;5998;42.676;23.268;2022-07-21T00:03:44;5.07;;;3.10;;
11877;SDS011;5998;42.676;23.268;2022-07-21T00:06:11;7.23;;;2.90;;
11877;SDS011;5998;42.676;23.268;2022-07-21T00:08:38;2.53;;;2.33;;
11877;SDS011;5998;42.676;23.268;2022-07-21T00:11:06;3.10;;;2.43;;
11877;SDS011;5998;42.676;23.268;2022-07-21T00:13:33;5.17;;;2.40;;
11877;SDS011;5998;42.676;23.268;2022-07-21T00:16:00;5.70;;;2.80;;
11877;SDS011;5998;42.676;23.268;2022-07-21T00:18:27;3.40;;;3.00;;
11877;SDS011;5998;42.676;23.268;2022-07-21T00:20:54;4.13;;;2.97;;
11877;SDS011;5998;42.676;23.268;2022-07-21T00:23:22;9.00;;;2.80;;
11877;SDS011;5998;42.676;23.268;2022-07-21T00:25:49;6.17;;;3.07;;
11877;SDS011;5998;42.676;23.268;2022-07-21T00:28:18;4.43;;;2.47;;
11877;SDS011;5998;42.676;23.268;2022-07-21T00:30:45;3.87;;;2.63;;
11877;SDS011;5998;42.676;23.268;2022-07-21T00:33:13;3.97;;;2.87;;
11877;SDS011;5998;42.676;23.268;2022-07-21T00:35:40;3.00;;;2.40;;
11877;SDS011;5998;42.676;23.268;2022-07-21T00:38:07;3.00;;;2.80;;
11877;SDS011;5998;42.676;23.268;2022-07-21T00:40:34;2.70;;;2.50;;
11877;SDS011;5998;42.676;23.268;2022-07-21T00:43:00;4.30;;;2.90;;
11877;SDS011;5998;42.676;23.268;2022-07-21T00:45:29;5.63;;;2.70;;
11877;SDS011;5998;42.676;23.268;2022-07-21T00:47:56;4.53;;;2.80;;
11877;SDS011;5998;42.676;23.268;2022-07-21T00:50:23;3.47;;;2.60;;
11877;SDS011;5998;42.676;23.268;2022-07-21T00:52:50;4.60;;;2.77;;
11877;SDS011;5998;42.676;23.268;2022-07-21T00:55:19;5.40;;;3.10;;
11877;SDS011;5998;42.676;23.268;2022-07-21T00:57:47;6.90;;;2.70;;
11877;SDS011;5998;42.676;23.268;2022-07-21T01:00:16;4.13;;;3.23;;
11877;SDS011;5998;42.676;23.268;2022-07-21T01:02:47;5.30;;;2.83;;
11877;SDS011;5998;42.676;23.268;2022-07-21T01:05:15;4.37;;;3.10;;
11877;SDS011;5998;42.676;23.268;2022-07-21T01:07:45;3.53;;;2.80;;
11877;SDS011;5998;42.676;23.268;2022-07-21T01:10:13;8.03;;;3.17;;
11877;SDS011;5998;42.676;23.268;2022-07-21T01:12:41;4.73;;;2.80;;
11877;SDS011;5998;42.676;23.268;2022-07-21T01:15:09;4.77;;;3.20;;
11877;SDS011;5998;42.676;23.268;2022-07-21T01:17:37;6.43;;;2.90;;
11877;SDS011;5998;42.676;23.268;2022-07-21T01:20:08;6.83;;;3.30;;
11877;SDS011;5998;42.676;23.268;2022-07-21T01:22:40;3.57;;;3.17;;
11877;SDS011;5998;42.676;23.268;2022-07-21T01:25:08;9.10;;;3.80;;
11877;SDS011;5998;42.676;23.268;2022-07-21T01:27:36;12.00;;;3.77;;
11877;SDS011;5998;42.676;23.268;2022-07-21T01:30:04;5.97;;;3.40;;
11877;SDS011;5998;42.676;23.268;2022-07-21T01:32:33;9.47;;;3.33;;
11877;SDS011;5998;42.676;23.268;2022-07-21T01:35:00;5.13;;;2.93;;
11877;SDS011;5998;42.676;23.268;2022-07-21T01:37:28;8.67;;;3.07;;
11877;SDS011;5998;42.676;23.268;2022-07-21T01:39:59;4.93;;;3.10;;
11877;SDS011;5998;42.676;23.268;2022-07-21T01:42:43;7.83;;;3.50;;
11877;SDS011;5998;42.676;23.268;2022-07-21T01:45:10;5.47;;;2.90;;
11877;SDS011;5998;42.676;23.268;2022-07-21T01:47:37;8.33;;;3.30;;
11877;SDS011;5998;42.676;23.268;2022-07-21T01:50:06;9.03;;;3.73;;
11877;SDS011;5998;42.676;23.268;2022-07-21T01:52:33;8.73;;;3.83;;
11877;SDS011;5998;42.676;23.268;2022-07-21T01:55:02;5.80;;;3.27;;
11877;SDS011;5998;42.676;23.268;2022-07-21T01:57:29;6.07;;;3.07;;
11877;SDS011;5998;42.676;23.268;2022-07-21T01:59:56;9.23;;;3.40;;
11877;SDS011;5998;42.676;23.268;2022-07-21T02:02:23;5.87;;;3.23;;
11877;SDS011;5998;42.676;23.268;2022-07-21T02:04:50;7.00;;;3.20;;
11877;SDS011;5998;42.676;23.268;2022-07-21T02:07:17;7.20;;;3.30;;
11877;SDS011;5998;42.676;23.268;2022-07-21T02:09:44;6.97;;;2.90;;
11877;SDS011;5998;42.676;23.268;2022-07-21T02:12:12;6.70;;;3.30;;
11877;SDS011;5998;42.676;23.268;2022-07-21T02:14:39;4.47;;;3.20;;
11877;SDS011;5998;42.676;23.268;2022-07-21T02:17:06;7.57;;;3.27;;
11877;SDS011;5998;42.676;23.268;2022-07-21T02:19:33;8.53;;;3.27;;
11877;SDS011;5998;42.676;23.268;2022-07-21T02:22:00;11.63;;;3.80;;
11877;SDS011;5998;42.676;23.268;2022-07-21T02:24:27;11.60;;;3.40;;
11877;SDS011;5998;42.676;23.268;2022-07-21T02:26:54;17.07;;;3.77;;
11877;SDS011;5998;42.676;23.268;2022-07-21T02:29:23;9.40;;;3.90;;
11877;SDS011;5998;42.676;23.268;2022-07-21T02:31:50;9.13;;;4.40;;
11877;SDS011;5998;42.676;23.268;2022-07-21T02:34:17;9.53;;;4.33;;
11877;SDS011;5998;42.676;23.268;2022-07-21T02:36:44;13.70;;;4.23;;
11877;SDS011;5998;42.676;23.268;2022-07-21T02:39:11;7.90;;;3.70;;
11877;SDS011;5998;42.676;23.268;2022-07-21T02:41:38;13.50;;;4.40;;
11877;SDS011;5998;42.676;23.268;2022-07-21T02:44:05;20.87;;;4.93;;
11877;SDS011;5998;42.676;23.268;2022-07-21T02:46:33;18.00;;;4.33;;
11877;SDS011;5998;42.676;23.268;2022-07-21T02:49:00;11.77;;;3.97;;
11877;SDS011;5998;42.676;23.268;2022-07-21T02:51:27;11.93;;;4.33;;
11877;SDS011;5998;42.676;23.268;2022-07-21T02:53:54;12.53;;;3.73;;
11877;SDS011;5998;42.676;23.268;2022-07-21T02:56:21;14.27;;;4.03;;
11877;SDS011;5998;42.676;23.268;2022-07-21T02:58:48;8.37;;;4.00;;
11877;SDS011;5998;42.676;23.268;2022-07-21T03:01:15;17.47;;;4.17;;
11877;SDS011;5998;42.676;23.268;2022-07-21T03:03:45;8.33;;;3.60;;
11877;SDS011;5998;42.676;23.268;2022-07-21T03:06:12;6.50;;;3.70;;
11877;SDS011;5998;42.676;23.268;2022-07-21T03:08:39;20.47;;;4.30;;
11877;SDS011;5998;42.676;23.268;2022-07-21T03:11:06;13.97;;;4.70;;
11877;SDS011;5998;42.676;23.268;2022-07-21T03:13:33;15.77;;;4.57;;
11877;SDS011;5998;42.676;23.268;2022-07-21T03:16:00;11.13;;;4.50;;
11877;SDS011;5998;42.676;23.268;2022-07-21T03:18:28;15.47;;;5.40;;
11877;SDS011;5998;42.676;23.268;2022-07-21T03:20:56;11.63;;;4.30;;
11877;SDS011;5998;42.676;23.268;2022-07-21T03:23:23;14.13;;;4.50;;
11877;SDS011;5998;42.676;23.268;2022-07-21T03:25:50;16.33;;;4.40;;
11877;SDS011;5998;42.676;23.268;2022-07-21T03:28:17;10.50;;;3.97;;
11877;SDS011;5998;42.676;23.268;2022-07-21T03:30:44;8.83;;;4.30;;
11877;SDS011;5998;42.676;23.268;2022-07-21T03:33:12;12.87;;;4.40;;
11877;SDS011;5998;42.676;23.268;2022-07-21T03:35:38;22.87;;;5.30;;
11877;SDS011;5998;42.676;23.268;2022-07-21T03:38:08;16.73;;;4.90;;
11877;SDS011;5998;42.676;23.268;2022-07-21T03:40:36;8.07;;;3.63;;
11877;SDS011;5998;42.676;23.268;2022-07-21T03:43:04;12.10;;;4.40;;
11877;SDS011;5998;42.676;23.268;2022-07-21T03:45:32;9.23;;;4.10;;
11877;SDS011;5998;42.676;23.268;2022-07-21T03:48:00;12.03;;;4.80;;
11877;SDS011;5998;42.676;23.268;2022-07-21T03:50:29;8.20;;;3.77;;
11877;SDS011;5998;42.676;23.268;2022-07-21T03:52:57;9.97;;;4.83;;
11877;SDS011;5998;42.676;23.268;2022-07-21T03:55:25;12.40;;;4.93;;
11877;SDS011;5998;42.676;23.268;2022-07-21T03:57:54;20.47;;;5.70;;
11877;SDS011;5998;42.676;23.268;2022-07-21T04:00:25;19.20;;;5.40;;
11877;SDS011;5998;42.676;23.268;2022-07-21T04:02:54;18.97;;;5.53;;
11877;SDS011;5998;42.676;23.268;2022-07-21T04:05:21;12.97;;;5.93;;
11877;SDS011;5998;42.676;23.268;2022-07-21T04:07:48;10.73;;;4.80;;
11877;SDS011;5998;42.676;23.268;2022-07-21T04:10:17;8.10;;;4.30;;
11877;SDS011;5998;42.676;23.268;2022-07-21T04:12:47;11.97;;;4.70;;
11877;SDS011;5998;42.676;23.268;2022-07-21T04:15:14;5.40;;;3.77;;
11877;SDS011;5998;42.676;23.268;2022-07-21T04:17:42;7.90;;;3.77;;
11877;SDS011;5998;42.676;23.268;2022-07-21T04:20:10;7.30;;;3.97;;
11877;SDS011;5998;42.676;23.268;2022-07-21T04:22:39;5.73;;;3.33;;
11877;SDS011;5998;42.676;23.268;2022-07-21T04:25:06;4.07;;;3.67;;
11877;SDS011;5998;42.676;23.268;2022-07-21T04:27:34;9.67;;;3.60;;
11877;SDS011;5998;42.676;23.268;2022-07-21T04:30:04;6.57;;;4.03;;
11877;SDS011;5998;42.676;23.268;2022-07-21T04:32:32;5.83;;;3.33;;
11877;SDS011;5998;42.676;23.268;2022-07-21T04:34:59;5.37;;;3.20;;
11877;SDS011;5998;42.676;23.268;2022-07-21T04:37:27;7.20;;;3.53;;
11877;SDS011;5998;42.676;23.268;2022-07-21T04:39:54;10.87;;;4.00;;
11877;SDS011;5998;42.676;23.268;2022-07-21T04:42:21;6.20;;;3.83;;
11877;SDS011;5998;42.676;23.268;2022-07-21T04:44:48;17.60;;;5.37;;
11877;SDS011;5998;42.676;23.268;2022-07-21T04:47:16;6.50;;;3.70;;
11877;SDS011;5998;42.676;23.268;2022-07-21T04:49:44;4.93;;;3.73;;
11877;SDS011;5998;42.676;23.268;2022-07-21T04:52:10;6.47;;;4.37;;
11877;SDS011;5998;42.676;23.268;2022-07-21T04:54:37;4.20;;;3.80;;
11877;SDS011;5998;42.676;23.268;2022-07-21T04:57:04;6.60;;;3.60;;
11877;SDS011;5998;42.676;23.268;2022-07-21T04:59:31;9.50;;;3.60;;
11877;SDS011;5998;42.676;23.268;2022-07-21T05:01:59;6.40;;;3.63;;
11877;SDS011;5998;42.676;23.268;2022-07-21T05:04:28;6.73;;;3.60;;
11877;SDS011;5998;42.676;23.268;2022-07-21T05:06:55;5.50;;;3.80;;
11877;SDS011;5998;42.676;23.268;2022-07-21T05:09:22;8.83;;;3.60;;
11877;SDS011;5998;42.676;23.268;2022-07-21T05:11:49;5.30;;;3.50;;
11877;SDS011;5998;42.676;23.268;2022-07-21T05:14:16;5.57;;;3.63;;
11877;SDS011;5998;42.676;23.268;2022-07-21T05:16:43;5.80;;;3.53;;
11877;SDS011;5998;42.676;23.268;2022-07-21T05:19:10;4.53;;;3.67;;
11877;SDS011;5998;42.676;23.268;2022-07-21T05:21:39;4.50;;;3.27;;
11877;SDS011;5998;42.676;23.268;2022-07-21T05:24:06;4.20;;;3.47;;
11877;SDS011;5998;42.676;23.268;2022-07-21T05:26:34;9.20;;;4.20;;
11877;SDS011;5998;42.676;23.268;2022-07-21T05:29:01;6.93;;;3.70;;
11877;SDS011;5998;42.676;23.268;2022-07-21T05:31:29;6.47;;;3.53;;
11877;SDS011;5998;42.676;23.268;2022-07-21T05:33:56;10.97;;;3.80;;
11877;SDS011;5998;42.676;23.268;2022-07-21T05:36:23;8.50;;;3.93;;
11877;SDS011;5998;42.676;23.268;2022-07-21T05:38:51;8.63;;;4.13;;
11877;SDS011;5998;42.676;23.268;2022-07-21T05:41:18;8.10;;;3.90;;
11877;SDS011;5998;42.676;23.268;2022-07-21T05:43:46;6.27;;;3.80;;
11877;SDS011;5998;42.676;23.268;2022-07-21T05:46:13;7.17;;;3.73;;
11877;SDS011;5998;42.676;23.268;2022-07-21T05:48:40;6.43;;;3.83;;
11877;SDS011;5998;42.676;23.268;2022-07-21T05:51:07;8.17;;;3.77;;
11877;SDS011;5998;42.676;23.268;2022-07-21T05:53:34;9.20;;;3.70;;
11877;SDS011;5998;42.676;23.268;2022-07-21T05:56:02;11.43;;;3.67;;
11877;SDS011;5998;42.676;23.268;2022-07-21T05:58:29;8.50;;;3.43;;
11877;SDS011;5998;42.676;23.268;2022-07-21T06:00:56;6.00;;;3.77;;
11877;SDS011;5998;42.676;23.268;2022-07-21T06:03:38;10.87;;;3.57;;
11877;SDS011;5998;42.676;23.268;2022-07-21T06:06:07;8.03;;;3.30;;
11877;SDS011;5998;42.676;23.268;2022-07-21T06:08:34;7.40;;;3.53;;
11877;SDS011;5998;42.676;23.268;2022-07-21T06:11:05;4.73;;;3.50;;
11877;SDS011;5998;42.676;23.268;2022-07-21T06:13:32;4.37;;;3.20;;
11877;SDS011;5998;42.676;23.268;2022-07-21T06:15:59;8.53;;;3.83;;
11877;SDS011;5998;42.676;23.268;2022-07-21T06:18:26;5.53;;;3.30;;
11877;SDS011;5998;42.676;23.268;2022-07-21T06:20:53;6.20;;;3.20;;
11877;SDS011;5998;42.676;23.268;2022-07-21T06:23:20;9.23;;;3.70;;
11877;SDS011;5998;42.676;23.268;2022-07-21T06:25:48;5.03;;;3.43;;
11877;SDS011;5998;42.676;23.268;2022-07-21T06:28:18;6.30;;;3.33;;
11877;SDS011;5998;42.676;23.268;2022-07-21T06:30:45;5.40;;;3.33;;
11877;SDS011;5998;42.676;23.268;2022-07-21T06:33:12;4.97;;;3.37;;
11877;SDS011;5998;42.676;23.268;2022-07-21T06:35:39;3.70;;;3.03;;
11877;SDS011;5998;42.676;23.268;2022-07-21T06:38:07;4.13;;;3.13;;
11877;SDS011;5998;42.676;23.268;2022-07-21T06:40:34;8.00;;;3.80;;
11877;SDS011;5998;42.676;23.268;2022-07-21T06:43:01;6.00;;;3.30;;
11877;SDS011;5998;42.676;23.268;2022-07-21T06:45:29;7.57;;;4.13;;
11877;SDS011;5998;42.676;23.268;2022-07-21T06:48:00;4.70;;;2.97;;
11877;SDS011;5998;42.676;23.268;2022-07-21T06:50:28;7.00;;;3.60;;
11877;SDS011;5998;42.676;23.268;2022-07-21T06:52:55;6.37;;;3.57;;
11877;SDS011;5998;42.676;23.268;2022-07-21T06:55:22;4.93;;;3.63;;
11877;SDS011;5998;42.676;23.268;2022-07-21T06:57:49;7.73;;;3.47;;
11877;SDS011;5998;42.676;23.268;2022-07-21T07:00:16;6.27;;;3.20;;
11877;SDS011;5998;42.676;23.268;2022-07-21T07:02:45;5.93;;;3.63;;
11877;SDS011;5998;42.676;23.268;2022-07-21T07:05:12;6.03;;;3.50;;
11877;SDS011;5998;42.676;23.268;2022-07-21T07:07:39;6.37;;;3.60;;
11877;SDS011;5998;42.676;23.268;2022-07-21T07:10:08;9.80;;;3.47;;
11877;SDS011;5998;42.676;23.268;2022-07-21T07:12:36;3.90;;;3.47;;
11877;SDS011;5998;42.676;23.268;2022-07-21T07:15:03;4.50;;;3.15;;
11877;SDS011;5998;42.676;23.268;2022-07-21T07:17:31;8.18;;;3.70;;
11877;SDS011;5998;42.676;23.268;2022-07-21T07:19:59;10.23;;;3.50;;
11877;SDS011;5998;42.676;23.268;2022-07-21T07:22:26;5.43;;;3.30;;
11877;SDS011;5998;42.676;23.268;2022-07-21T07:24:53;11.82;;;4.07;;
11877;SDS011;5998;42.676;23.268;2022-07-21T07:27:19;4.13;;;3.20;;
11877;SDS011;5998;42.676;23.268;2022-07-21T07:29:46;9.05;;;3.40;;
11877;SDS011;5998;42.676;23.268;2022-07-21T07:32:13;4.90;;;3.00;;
11877;SDS011;5998;42.676;23.268;2022-07-21T07:34:39;8.73;;;3.30;;
11877;SDS011;5998;42.676;23.268;2022-07-21T07:37:08;8.88;;;3.30;;
11877;SDS011;5998;42.676;23.268;2022-07-21T07:39:35;8.07;;;3.22;;
11877;SDS011;5998;42.676;23.268;2022-07-21T07:42:03;9.10;;;3.20;;
11877;SDS011;5998;42.676;23.268;2022-07-21T07:44:30;13.40;;;3.58;;
11877;SDS011;5998;42.676;23.268;2022-07-21T07:46:56;5.35;;;3.15;;
11877;SDS011;5998;42.676;23.268;2022-07-21T07:49:23;5.90;;;3.50;;
11877;SDS011;5998;42.676;23.268;2022-07-21T07:51:50;10.65;;;2.80;;
11877;SDS011;5998;42.676;23.268;2022-07-21T07:54:18;6.18;;;2.75;;
11877;SDS011;5998;42.676;23.268;2022-07-21T07:56:44;4.07;;;3.10;;
11877;SDS011;5998;42.676;23.268;2022-07-21T07:59:11;4.97;;;2.95;;
11877;SDS011;5998;42.676;23.268;2022-07-21T08:01:38;5.63;;;2.88;;
11877;SDS011;5998;42.676;23.268;2022-07-21T08:04:05;4.33;;;2.70;;
11877;SDS011;5998;42.676;23.268;2022-07-21T08:06:32;6.10;;;2.88;;
11877;SDS011;5998;42.676;23.268;2022-07-21T08:08:59;5.80;;;3.08;;
11877;SDS011;5998;42.676;23.268;2022-07-21T08:11:27;6.10;;;2.60;;
11877;SDS011;5998;42.676;23.268;2022-07-21T08:13:53;7.40;;;3.10;;
11877;SDS011;5998;42.676;23.268;2022-07-21T08:16:21;6.35;;;2.78;;
11877;SDS011;5998;42.676;23.268;2022-07-21T08:18:48;3.88;;;2.40;;
11877;SDS011;5998;42.676;23.268;2022-07-21T08:21:15;7.53;;;3.05;;
11877;SDS011;5998;42.676;23.268;2022-07-21T08:23:42;3.00;;;2.70;;
11877;SDS011;5998;42.676;23.268;2022-07-21T08:26:09;10.52;;;3.25;;
11877;SDS011;5998;42.676;23.268;2022-07-21T08:28:37;5.05;;;2.42;;
11877;SDS011;5998;42.676;23.268;2022-07-21T08:31:04;5.93;;;2.83;;
11877;SDS011;5998;42.676;23.268;2022-07-21T08:33:31;5.32;;;2.72;;
11877;SDS011;5998;42.676;23.268;2022-07-21T08:35:58;3.90;;;2.60;;
11877;SDS011;5998;42.676;23.268;2022-07-21T08:38:25;5.43;;;2.60;;
11877;SDS011;5998;42.676;23.268;2022-07-21T08:40:52;2.63;;;2.30;;
11877;SDS011;5998;42.676;23.268;2022-07-21T08:43:19;3.10;;;2.72;;
11877;SDS011;5998;42.676;23.268;2022-07-21T08:45:48;4.10;;;2.78;;
11877;SDS011;5998;42.676;23.268;2022-07-21T08:48:15;3.55;;;2.45;;
11877;SDS011;5998;42.676;23.268;2022-07-21T08:50:47;5.80;;;2.60;;
11877;SDS011;5998;42.676;23.268;2022-07-21T08:53:14;7.20;;;2.60;;
11877;SDS011;5998;42.676;23.268;2022-07-21T08:55:41;5.82;;;2.60;;
11877;SDS011;5998;42.676;23.268;2022-07-21T08:58:08;4.40;;;2.58;;
11877;SDS011;5998;42.676;23.268;2022-07-21T09:00:36;6.35;;;2.88;;
11877;SDS011;5998;42.676;23.268;2022-07-21T09:03:08;3.75;;;2.70;;
11877;SDS011;5998;42.676;23.268;2022-07-21T09:05:37;3.53;;;2.95;;
11877;SDS011;5998;42.676;23.268;2022-07-21T09:08:04;6.65;;;3.35;;
11877;SDS011;5998;42.676;23.268;2022-07-21T09:10:31;8.35;;;2.83;;
11877;SDS011;5998;42.676;23.268;2022-07-21T09:12:59;8.32;;;2.80;;
11877;SDS011;5998;42.676;23.268;2022-07-21T09:15:28;3.70;;;2.60;;
11877;SDS011;5998;42.676;23.268;2022-07-21T09:18:03;5.57;;;2.90;;
11877;SDS011;5998;42.676;23.268;2022-07-21T09:20:36;4.53;;;3.05;;
11877;SDS011;5998;42.676;23.268;2022-07-21T09:23:07;6.43;;;2.80;;
11877;SDS011;5998;42.676;23.268;2022-07-21T09:25:36;2.85;;;2.60;;
11877;SDS011;5998;42.676;23.268;2022-07-21T09:28:08;6.00;;;3.00;;
11877;SDS011;5998;42.676;23.268;2022-07-21T09:30:51;6.88;;;3.08;;
11877;SDS011;5998;42.676;23.268;2022-07-21T09:33:23;6.80;;;2.90;;
11877;SDS011;5998;42.676;23.268;2022-07-21T09:35:58;4.45;;;3.00;;
11877;SDS011;5998;42.676;23.268;2022-07-21T09:38:27;3.97;;;3.00;;
11877;SDS011;5998;42.676;23.268;2022-07-21T09:40:55;5.95;;;2.80;;
11877;SDS011;5998;42.676;23.268;2022-07-21T09:43:31;7.57;;;3.92;;
11877;SDS011;5998;42.676;23.268;2022-07-21T09:46:03;4.70;;;3.00;;
11877;SDS011;5998;42.676;23.268;2022-07-21T09:48:33;5.25;;;3.05;;
11877;SDS011;5998;42.676;23.268;2022-07-21T09:53:50;4.63;;;2.90;;
11877;SDS011;5998;42.676;23.268;2022-07-21T09:56:19;8.60;;;3.08;;
11877;SDS011;5998;42.676;23.268;2022-07-21T09:58:47;4.97;;;3.10;;
11877;SDS011;5998;42.676;23.268;2022-07-21T10:01:15;4.20;;;2.92;;
11877;SDS011;5998;42.676;23.268;2022-07-21T10:03:45;3.40;;;2.97;;
11877;SDS011;5998;42.676;23.268;2022-07-21T10:06:13;3.78;;;2.90;;
11877;SDS011;5998;42.676;23.268;2022-07-21T10:08:42;4.25;;;2.88;;
11877;SDS011;5998;42.676;23.268;2022-07-21T10:11:09;4.68;;;3.00;;
11877;SDS011;5998;42.676;23.268;2022-07-21T10:13:37;4.65;;;2.65;;
11877;SDS011;5998;42.676;23.268;2022-07-21T10:16:06;3.05;;;2.70;;
11877;SDS011;5998;42.676;23.268;2022-07-21T10:18:36;3.03;;;2.70;;
11877;SDS011;5998;42.676;23.268;2022-07-21T10:21:10;4.80;;;3.10;;
11877;SDS011;5998;42.676;23.268;2022-07-21T10:23:45;5.97;;;2.83;;
11877;SDS011;5998;42.676;23.268;2022-07-21T10:26:12;4.13;;;2.65;;
11877;SDS011;5998;42.676;23.268;2022-07-21T10:28:39;3.10;;;2.80;;
11877;SDS011;5998;42.676;23.268;2022-07-21T10:31:16;3.03;;;2.80;;
11877;SDS011;5998;42.676;23.268;2022-07-21T10:33:52;3.38;;;2.65;;
11877;SDS011;5998;42.676;23.268;2022-07-21T10:39:12;5.50;;;2.92;;
11877;SDS011;5998;42.676;23.268;2022-07-21T10:41:50;4.35;;;2.80;;
11877;SDS011;5998;42.676;23.268;2022-07-21T10:47:10;4.53;;;2.70;;
11877;SDS011;5998;42.676;23.268;2022-07-21T10:49:42;5.85;;;2.83;;
11877;SDS011;5998;42.676;23.268;2022-07-21T10:55:17;5.43;;;2.90;;
11877;SDS011;5998;42.676;23.268;2022-07-21T10:58:14;3.20;;;2.90;;
11877;SDS011;5998;42.676;23.268;2022-07-21T11:00:46;6.32;;;3.00;;
11877;SDS011;5998;42.676;23.268;2022-07-21T11:03:16;3.13;;;2.80;;
11877;SDS011;5998;42.676;23.268;2022-07-21T11:08:38;5.90;;;3.00;;
11877;SDS011;5998;42.676;23.268;2022-07-21T11:11:09;3.70;;;2.85;;
11877;SDS011;5998;42.676;23.268;2022-07-21T11:19:36;4.35;;;2.70;;
11877;SDS011;5998;42.676;23.268;2022-07-21T11:22:11;6.82;;;3.20;;
11877;SDS011;5998;42.676;23.268;2022-07-21T11:24:40;3.85;;;2.92;;
11877;SDS011;5998;42.676;23.268;2022-07-21T11:27:11;4.32;;;3.20;;
11877;SDS011;5998;42.676;23.268;2022-07-21T11:29:40;5.07;;;3.10;;
11877;SDS011;5998;42.676;23.268;2022-07-21T11:32:09;3.97;;;2.80;;
11877;SDS011;5998;42.676;23.268;2022-07-21T11:34:38;5.00;;;2.85;;
11877;SDS011;5998;42.676;23.268;2022-07-21T11:37:06;4.18;;;2.67;;
11877;SDS011;5998;42.676;23.268;2022-07-21T11:39:34;3.40;;;3.00;;
11877;SDS011;5998;42.676;23.268;2022-07-21T11:42:03;4.50;;;2.90;;
11877;SDS011;5998;42.676;23.268;2022-07-21T11:44:33;3.53;;;2.97;;
11877;SDS011;5998;42.676;23.268;2022-07-21T11:47:00;3.28;;;2.80;;
11877;SDS011;5998;42.676;23.268;2022-07-21T11:49:28;3.63;;;2.83;;
11877;SDS011;5998;42.676;23.268;2022-07-21T11:51:58;5.18;;;2.80;;
11877;SDS011;5998;42.676;23.268;2022-07-21T11:54:28;4.40;;;2.83;;
11877;SDS011;5998;42.676;23.268;2022-07-21T11:56:57;4.47;;;2.78;;
11877;SDS011;5998;42.676;23.268;2022-07-21T11:59:26;4.30;;;2.90;;
11877;SDS011;5998;42.676;23.268;2022-07-21T12:01:57;4.82;;;2.80;;
11877;SDS011;5998;42.676;23.268;2022-07-21T12:04:30;3.53;;;3.08;;
11877;SDS011;5998;42.676;23.268;2022-07-21T12:07:02;5.18;;;2.97;;
11877;SDS011;5998;42.676;23.268;2022-07-21T12:09:30;6.13;;;3.03;;
11877;SDS011;5998;42.676;23.268;2022-07-21T12:11:58;5.18;;;2.90;;
11877;SDS011;5998;42.676;23.268;2022-07-21T12:14:38;3.53;;;3.22;;
11877;SDS011;5998;42.676;23.268;2022-07-21T12:17:11;5.40;;;2.95;;
11877;SDS011;5998;42.676;23.268;2022-07-21T12:19:38;9.57;;;4.22;;
11877;SDS011;5998;42.676;23.268;2022-07-21T12:22:06;4.07;;;2.90;;
11877;SDS011;5998;42.676;23.268;2022-07-21T12:24:52;15.63;;;4.57;;
11877;SDS011;5998;42.676;23.268;2022-07-21T12:27:22;5.25;;;3.65;;
11877;SDS011;5998;42.676;23.268;2022-07-21T12:29:49;6.55;;;3.25;;
11877;SDS011;5998;42.676;23.268;2022-07-21T12:35:16;3.60;;;2.95;;
11877;SDS011;5998;42.676;23.268;2022-07-21T12:37:51;3.50;;;3.20;;
11877;SDS011;5998;42.676;23.268;2022-07-21T12:40:19;3.20;;;2.90;;
11877;SDS011;5998;42.676;23.268;2022-07-21T12:42:47;4.85;;;2.80;;
11877;SDS011;5998;42.676;23.268;2022-07-21T12:45:15;4.78;;;3.03;;
11877;SDS011;5998;42.676;23.268;2022-07-21T12:47:43;4.50;;;3.20;;
11877;SDS011;5998;42.676;23.268;2022-07-21T12:50:31;8.73;;;3.13;;
11877;SDS011;5998;42.676;23.268;2022-07-21T12:52:58;11.65;;;3.45;;
11877;SDS011;5998;42.676;23.268;2022-07-21T12:55:25;5.85;;;3.05;;
11877;SDS011;5998;42.676;23.268;2022-07-21T12:57:52;3.58;;;2.72;;
11877;SDS011;5998;42.676;23.268;2022-07-21T13:00:19;3.40;;;2.90;;
11877;SDS011;5998;42.676;23.268;2022-07-21T13:02:46;6.68;;;3.42;;
11877;SDS011;5998;42.676;23.268;2022-07-21T13:05:13;6.40;;;2.95;;
11877;SDS011;5998;42.676;23.268;2022-07-21T13:07:42;5.47;;;3.25;;
11877;SDS011;5998;42.676;23.268;2022-07-21T13:10:09;3.47;;;3.17;;
11877;SDS011;5998;42.676;23.268;2022-07-21T13:12:36;5.22;;;3.30;;
11877;SDS011;5998;42.676;23.268;2022-07-21T13:15:04;3.13;;;2.92;;
11877;SDS011;5998;42.676;23.268;2022-07-21T13:17:32;4.07;;;2.90;;
11877;SDS011;5998;42.676;23.268;2022-07-21T13:19:59;3.67;;;2.92;;
11877;SDS011;5998;42.676;23.268;2022-07-21T13:22:26;4.25;;;3.05;;
11877;SDS011;5998;42.676;23.268;2022-07-21T13:24:55;3.72;;;2.83;;
11877;SDS011;5998;42.676;23.268;2022-07-21T13:27:22;5.00;;;2.72;;
11877;SDS011;5998;42.676;23.268;2022-07-21T13:29:49;6.57;;;2.88;;
11877;SDS011;5998;42.676;23.268;2022-07-21T13:32:16;5.35;;;3.10;;
11877;SDS011;5998;42.676;23.268;2022-07-21T13:34:43;8.93;;;3.05;;
11877;SDS011;5998;42.676;23.268;2022-07-21T13:37:10;3.50;;;2.85;;
11877;SDS011;5998;42.676;23.268;2022-07-21T13:39:37;3.10;;;2.80;;
11877;SDS011;5998;42.676;23.268;2022-07-21T13:42:06;8.38;;;2.92;;
11877;SDS011;5998;42.676;23.268;2022-07-21T13:44:33;5.22;;;3.05;;
11877;SDS011;5998;42.676;23.268;2022-07-21T13:47:01;8.23;;;2.95;;
11877;SDS011;5998;42.676;23.268;2022-07-21T13:49:28;3.08;;;2.78;;
11877;SDS011;5998;42.676;23.268;2022-07-21T13:51:55;9.57;;;3.40;;
11877;SDS011;5998;42.676;23.268;2022-07-21T13:54:22;5.18;;;2.95;;
11877;SDS011;5998;42.676;23.268;2022-07-21T13:56:49;8.23;;;3.10;;
11877;SDS011;5998;42.676;23.268;2022-07-21T13:59:18;3.65;;;3.00;;
11877;SDS011;5998;42.676;23.268;2022-07-21T14:01:45;5.15;;;2.70;;
11877;SDS011;5998;42.676;23.268;2022-07-21T14:04:14;6.60;;;2.97;;
11877;SDS011;5998;42.676;23.268;2022-07-21T14:06:42;6.82;;;3.15;;
11877;SDS011;5998;42.676;23.268;2022-07-21T14:09:14;6.15;;;3.38;;
11877;SDS011;5998;42.676;23.268;2022-07-21T14:11:50;3.40;;;3.10;;
11877;SDS011;5998;42.676;23.268;2022-07-21T14:14:19;6.53;;;3.25;;
11877;SDS011;5998;42.676;23.268;2022-07-21T14:16:48;4.88;;;2.92;;
11877;SDS011;5998;42.676;23.268;2022-07-21T14:19:15;3.55;;;2.53;;
11877;SDS011;5998;42.676;23.268;2022-07-21T14:21:42;3.17;;;2.80;;
11877;SDS011;5998;42.676;23.268;2022-07-21T14:24:09;4.97;;;3.00;;
11877;SDS011;5998;42.676;23.268;2022-07-21T14:26:54;4.88;;;2.88;;
11877;SDS011;5998;42.676;23.268;2022-07-21T14:29:22;3.95;;;2.95;;
11877;SDS011;5998;42.676;23.268;2022-07-21T14:31:49;7.32;;;2.80;;
11877;SDS011;5998;42.676;23.268;2022-07-21T14:34:16;5.88;;;3.33;;
11877;SDS011;5998;42.676;23.268;2022-07-21T14:36:43;6.60;;;2.70;;
11877;SDS011;5998;42.676;23.268;2022-07-21T14:39:12;3.55;;;2.63;;
11877;SDS011;5998;42.676;23.268;2022-07-21T14:41:39;4.68;;;2.85;;
11877;SDS011;5998;42.676;23.268;2022-07-21T14:44:06;4.95;;;3.05;;
11877;SDS011;5998;42.676;23.268;2022-07-21T14:46:34;4.60;;;3.03;;
11877;SDS011;5998;42.676;23.268;2022-07-21T14:49:01;5.43;;;2.97;;
11877;SDS011;5998;42.676;23.268;2022-07-21T14:51:28;5.80;;;2.92;;
11877;SDS011;5998;42.676;23.268;2022-07-21T14:53:56;2.90;;;2.70;;
11877;SDS011;5998;42.676;23.268;2022-07-21T14:56:23;9.45;;;3.00;;
11877;SDS011;5998;42.676;23.268;2022-07-21T14:58:49;8.68;;;3.10;;
11877;SDS011;5998;42.676;23.268;2022-07-21T15:01:16;5.85;;;3.10;;
11877;SDS011;5998;42.676;23.268;2022-07-21T15:03:45;10.52;;;3.28;;
11877;SDS011;5998;42.676;23.268;2022-07-21T15:06:12;4.88;;;2.78;;
11877;SDS011;5998;42.676;23.268;2022-07-21T15:08:39;6.70;;;3.20;;
11877;SDS011;5998;42.676;23.268;2022-07-21T15:11:06;3.58;;;3.13;;
11877;SDS011;5998;42.676;23.268;2022-07-21T15:13:33;3.95;;;3.38;;
11877;SDS011;5998;42.676;23.268;2022-07-21T15:16:00;4.53;;;2.97;;